createdAt,value
2023-02-13T00:01:06.063Z,101208.13
2023-02-13T00:02:39.320Z,101215.88
2023-02-13T00:04:14.048Z,101218.44
2023-02-13T00:05:48.681Z,101204.56
2023-02-13T00:07:22.229Z,101204.28
2023-02-13T00:08:55.582Z,101211.25
2023-02-13T00:10:29.447Z,101211.03
2023-02-13T00:12:02.557Z,101212.63
2023-02-13T00:13:36.258Z,101217.63
2023-02-13T00:15:10.465Z,101208.00
2023-02-13T00:16:43.643Z,101214.09
2023-02-13T00:18:16.780Z,101210.53
2023-02-13T00:19:51.266Z,101198.25
2023-02-13T00:21:24.775Z,101210.34
2023-02-13T00:22:59.790Z,101200.75
2023-02-13T00:24:31.898Z,101199.00
2023-02-13T00:26:08.276Z,101199.88
2023-02-13T00:27:41.532Z,101211.09
2023-02-13T00:29:14.656Z,101206.69
2023-02-13T00:30:46.986Z,101207.59
2023-02-13T00:32:20.190Z,101215.34
2023-02-13T00:33:53.513Z,101199.63
2023-02-13T00:35:28.089Z,101199.50
2023-02-13T00:37:00.274Z,101209.84
2023-02-13T00:38:33.457Z,101206.41
2023-02-13T00:40:07.681Z,101211.59
2023-02-13T00:41:41.164Z,101215.91
2023-02-13T00:43:14.298Z,101218.44
2023-02-13T00:44:47.428Z,101217.59
2023-02-13T00:46:20.947Z,101209.72
2023-02-13T00:47:53.300Z,101211.31
2023-02-13T00:49:27.219Z,101218.25
2023-02-13T00:51:01.755Z,101223.34
2023-02-13T00:52:36.719Z,101215.44
2023-02-13T00:54:10.005Z,101223.13
2023-02-13T00:55:44.036Z,101209.19
2023-02-13T00:57:17.318Z,101216.09
2023-02-13T00:58:50.721Z,101209.06
2023-02-13T01:00:23.814Z,101206.97
2023-02-13T01:01:57.392Z,101219.59
2023-02-13T01:03:30.756Z,101219.31
2023-02-13T01:05:05.714Z,101212.94
2023-02-13T01:06:40.404Z,101217.81
2023-02-13T01:08:14.441Z,101219.34
2023-02-13T01:09:47.613Z,101225.31
2023-02-13T01:11:20.833Z,101213.03
2023-02-13T01:12:53.276Z,101214.75
2023-02-13T01:14:26.549Z,101218.19
2023-02-13T01:15:59.731Z,101220.78
2023-02-13T01:17:33.045Z,101232.66
2023-02-13T01:19:06.636Z,101227.41
2023-02-13T01:20:39.874Z,101228.25
2023-02-13T01:22:14.456Z,101234.25
2023-02-13T01:23:48.282Z,101230.84
2023-02-13T01:25:21.862Z,101246.38
2023-02-13T01:26:56.438Z,101236.03
2023-02-13T01:28:29.696Z,101231.66
2023-02-13T01:30:02.866Z,101228.25
2023-02-13T01:31:36.305Z,101219.31
2023-02-13T01:33:10.866Z,101237.84
2023-02-13T01:34:44.119Z,101232.59
2023-02-13T01:36:17.720Z,101225.66
2023-02-13T01:37:52.237Z,101232.53
2023-02-13T01:39:25.681Z,101221.84
2023-02-13T01:40:59.265Z,101239.44
2023-02-13T01:42:34.768Z,101235.13
2023-02-13T01:44:40.422Z,101230.72
2023-02-13T01:46:16.182Z,101232.28
2023-02-13T01:47:52.123Z,101230.47
2023-02-13T01:49:27.276Z,101233.91
2023-02-13T01:51:03.273Z,101230.34
2023-02-13T01:52:39.368Z,101228.47
2023-02-13T01:54:18.484Z,101230.00
2023-02-13T01:55:56.457Z,101230.00
2023-02-13T01:57:34.478Z,101229.03
2023-02-13T01:59:12.942Z,101229.88
2023-02-13T02:00:49.831Z,101224.56
2023-02-13T02:02:23.945Z,101228.00
2023-02-13T02:04:00.815Z,101239.22
2023-02-13T02:05:37.637Z,101226.22
2023-02-13T02:07:15.879Z,101218.44
2023-02-13T02:08:50.935Z,101230.34
2023-02-13T02:10:29.434Z,101225.84
2023-02-13T02:12:06.695Z,101227.53
2023-02-13T02:13:43.242Z,101232.44
2023-02-13T02:15:16.478Z,101230.69
2023-02-13T02:16:49.650Z,101234.22
2023-02-13T02:18:25.100Z,101232.31
2023-02-13T02:20:07.396Z,101232.75
2023-02-13T02:22:07.690Z,101224.69
2023-02-13T02:24:21.178Z,101233.25
2023-02-13T02:26:18.675Z,101229.59
2023-02-13T02:28:31.661Z,101235.44
2023-02-13T02:30:48.301Z,101238.03
2023-02-13T02:32:44.569Z,101239.69
2023-02-13T02:34:27.408Z,101238.72
2023-02-13T02:36:16.790Z,101241.25
2023-02-13T02:38:09.586Z,101234.25
2023-02-13T02:39:52.706Z,101244.75
2023-02-13T02:41:44.216Z,101246.53
2023-02-13T02:43:34.726Z,101237.94
2023-02-13T02:45:18.535Z,101234.00
2023-02-13T02:47:32.839Z,101248.41
2023-02-13T02:49:32.953Z,101241.59
2023-02-13T02:51:13.712Z,101241.53
2023-02-13T02:52:59.179Z,101239.63
2023-02-13T02:54:58.585Z,101242.16
2023-02-13T02:56:41.996Z,101238.66
2023-02-13T02:58:37.866Z,101224.34
2023-02-13T03:00:30.025Z,101217.53
2023-02-13T03:02:33.854Z,101226.53
2023-02-13T03:04:35.568Z,101229.25
2023-02-13T03:06:16.483Z,101230.09
2023-02-13T03:07:50.566Z,101217.41
2023-02-13T03:09:47.754Z,101230.09
2023-02-13T03:11:38.572Z,101219.72
2023-02-13T03:13:22.920Z,101226.66
2023-02-13T03:14:55.056Z,101223.09
2023-02-13T03:16:46.231Z,101226.66
2023-02-13T03:18:36.867Z,101209.34
2023-02-13T03:20:36.672Z,101196.78
2023-02-13T03:22:23.807Z,101211.78
2023-02-13T03:24:04.809Z,101224.63
2023-02-13T03:25:55.429Z,101207.31
2023-02-13T03:27:56.322Z,101214.13
2023-02-13T03:29:58.671Z,101219.44
2023-02-13T03:31:37.267Z,101215.88
2023-02-13T03:33:27.899Z,101220.13
2023-02-13T03:35:34.228Z,101220.97
2023-02-13T03:37:30.691Z,101216.47
2023-02-13T03:39:10.396Z,101215.38
2023-02-13T03:41:03.706Z,101216.88
2023-02-13T03:42:42.705Z,101218.13
2023-02-13T03:44:22.074Z,101219.38
2023-02-13T03:45:54.694Z,101208.88
2023-02-13T03:47:28.161Z,101224.13
2023-02-13T03:49:21.274Z,101223.75
2023-02-13T03:50:53.984Z,101225.50
2023-02-13T03:52:34.104Z,101221.44
2023-02-13T03:54:13.908Z,101226.69
2023-02-13T03:56:06.743Z,101215.44
2023-02-13T03:58:01.670Z,101215.28
2023-02-13T03:59:37.697Z,101217.81
2023-02-13T04:01:15.328Z,101213.53
2023-02-13T04:02:58.577Z,101223.88
2023-02-13T04:04:41.759Z,101224.03
2023-02-13T04:06:18.373Z,101219.56
2023-02-13T04:07:52.086Z,101222.22
2023-02-13T04:09:26.474Z,101225.50
2023-02-13T04:11:08.913Z,101233.81
2023-02-13T04:12:52.130Z,101227.63
2023-02-13T04:14:29.739Z,101222.50
2023-02-13T04:16:13.961Z,101236.34
2023-02-13T04:17:53.223Z,101235.63
2023-02-13T04:19:27.839Z,101233.03
2023-02-13T04:21:03.912Z,101234.94
2023-02-13T04:22:43.797Z,101243.63
2023-02-13T04:24:18.280Z,101234.78
2023-02-13T04:25:53.733Z,101237.66
2023-02-13T04:27:28.910Z,101234.09
2023-02-13T04:29:01.358Z,101233.97
2023-02-13T04:30:34.927Z,101227.91
2023-02-13T04:32:08.230Z,101241.81
2023-02-13T04:33:41.449Z,101242.56
2023-02-13T04:35:14.931Z,101244.31
2023-02-13T04:36:48.128Z,101250.31
2023-02-13T04:38:21.364Z,101246.16
2023-02-13T04:39:55.930Z,101241.03
2023-02-13T04:41:28.009Z,101250.31
2023-02-13T04:43:01.239Z,101252.78
2023-02-13T04:44:34.561Z,101246.38
2023-02-13T04:46:07.820Z,101241.78
2023-02-13T04:47:40.922Z,101241.56
2023-02-13T04:49:14.242Z,101235.59
2023-02-13T04:50:48.064Z,101239.81
2023-02-13T04:52:21.335Z,101238.66
2023-02-13T04:53:54.482Z,101237.34
2023-02-13T04:55:29.712Z,101234.31
2023-02-13T04:57:01.960Z,101238.25
2023-02-13T04:58:35.142Z,101238.34
2023-02-13T05:00:08.676Z,101235.31
2023-02-13T05:01:41.860Z,101241.00
2023-02-13T05:03:15.311Z,101235.72
2023-02-13T05:04:47.512Z,101243.72
2023-02-13T05:06:20.833Z,101237.97
2023-02-13T05:07:53.945Z,101247.41
2023-02-13T05:09:27.400Z,101250.97
2023-02-13T05:11:01.973Z,101252.91
2023-02-13T05:12:35.696Z,101258.22
2023-02-13T05:14:09.008Z,101245.97
2023-02-13T05:15:42.420Z,101261.75
2023-02-13T05:17:16.194Z,101261.03
2023-02-13T05:18:48.572Z,101255.13
2023-02-13T05:20:22.097Z,101264.88
2023-02-13T05:22:21.014Z,101264.13
2023-02-13T05:23:53.429Z,101274.63
2023-02-13T05:25:26.655Z,101272.97
2023-02-13T05:27:01.296Z,101273.13
2023-02-13T05:28:51.562Z,101269.72
2023-02-13T05:30:25.518Z,101271.66
2023-02-13T05:32:00.930Z,101269.19
2023-02-13T05:33:33.114Z,101268.25
2023-02-13T05:35:06.774Z,101275.06
2023-02-13T05:36:40.045Z,101276.84
2023-02-13T05:38:13.275Z,101279.63
2023-02-13T05:39:46.413Z,101280.69
2023-02-13T05:41:19.885Z,101291.19
2023-02-13T05:42:55.505Z,101289.53
2023-02-13T05:44:28.825Z,101274.25
2023-02-13T05:46:05.872Z,101287.09
2023-02-13T05:47:39.292Z,101288.03
2023-02-13T05:49:13.508Z,101296.94
2023-02-13T05:50:47.906Z,101295.28
2023-02-13T05:52:21.134Z,101288.34
2023-02-13T05:53:54.601Z,101286.56
2023-02-13T05:55:27.701Z,101285.75
2023-02-13T05:57:00.978Z,101289.31
2023-02-13T05:58:36.261Z,101288.47
2023-02-13T06:00:10.595Z,101289.66
2023-02-13T06:01:43.735Z,101290.72
2023-02-13T06:03:16.228Z,101296.13
2023-02-13T06:04:49.338Z,101298.03
2023-02-13T06:06:23.232Z,101301.88
2023-02-13T06:07:56.401Z,101301.22
2023-02-13T06:09:29.862Z,101300.59
2023-02-13T06:11:02.606Z,101297.88
2023-02-13T06:12:35.989Z,101293.84
2023-02-13T06:14:10.525Z,101279.50
2023-02-13T06:15:43.229Z,101318.53
2023-02-13T06:17:16.421Z,101318.69
2023-02-13T06:18:49.696Z,101324.06
2023-02-13T06:20:22.936Z,101315.69
2023-02-13T06:21:56.354Z,101313.47
2023-02-13T06:23:29.670Z,101305.16
2023-02-13T06:25:02.000Z,101307.13
2023-02-13T06:26:35.487Z,101303.91
2023-02-13T06:28:09.348Z,101285.63
2023-02-13T06:29:43.884Z,101308.78
2023-02-13T06:31:17.240Z,101307.44
2023-02-13T06:32:50.664Z,101309.44
2023-02-13T06:34:24.350Z,101301.09
2023-02-13T06:35:57.486Z,101303.25
2023-02-13T06:37:30.766Z,101298.06
2023-02-13T06:39:03.923Z,101312.50
2023-02-13T06:40:37.304Z,101309.06
2023-02-13T06:42:10.407Z,101315.91
2023-02-13T06:43:43.742Z,101314.50
2023-02-13T06:45:18.448Z,101310.88
2023-02-13T06:46:51.755Z,101303.47
2023-02-13T06:48:24.924Z,101305.56
2023-02-13T06:49:58.258Z,101316.59
2023-02-13T06:51:31.457Z,101297.91
2023-02-13T06:53:05.025Z,101306.13
2023-02-13T06:54:47.320Z,101309.06
2023-02-13T06:56:21.302Z,101311.09
2023-02-13T06:57:54.502Z,101316.06
2023-02-13T06:59:27.892Z,101311.56
2023-02-13T07:01:02.543Z,101317.00
2023-02-13T07:02:35.784Z,101313.63
2023-02-13T07:04:08.907Z,101311.47
2023-02-13T07:05:42.879Z,101317.19
2023-02-13T07:07:16.036Z,101314.81
2023-02-13T07:08:51.531Z,101317.16
2023-02-13T07:10:24.788Z,101322.88
2023-02-13T07:11:57.973Z,101316.47
2023-02-13T07:13:31.130Z,101308.31
2023-02-13T07:15:05.122Z,101303.69
2023-02-13T07:16:39.611Z,101302.22
2023-02-13T07:18:12.819Z,101305.31
2023-02-13T07:19:46.039Z,101302.28
2023-02-13T07:21:19.640Z,101298.31
2023-02-13T07:22:52.891Z,101298.72
2023-02-13T07:24:26.195Z,101292.59
2023-02-13T07:26:00.471Z,101299.75
2023-02-13T07:27:33.862Z,101301.59
2023-02-13T07:29:11.597Z,101299.28
2023-02-13T07:30:45.821Z,101298.56
2023-02-13T07:32:20.433Z,101301.50
2023-02-13T07:33:53.943Z,101296.44
2023-02-13T07:35:27.142Z,101307.16
2023-02-13T07:37:00.615Z,101308.22
2023-02-13T07:38:34.525Z,101306.59
2023-02-13T07:40:09.541Z,101305.75
2023-02-13T07:41:42.723Z,101295.19
2023-02-13T07:43:16.065Z,101296.16
2023-02-13T07:44:49.514Z,101295.41
2023-02-13T07:46:22.977Z,101290.22
2023-02-13T07:47:58.410Z,101283.19
2023-02-13T07:49:32.054Z,101277.97
2023-02-13T07:51:07.077Z,101287.59
2023-02-13T07:52:40.773Z,101281.50
2023-02-13T07:54:13.910Z,101276.22
2023-02-13T07:55:47.220Z,101279.72
2023-02-13T07:57:20.418Z,101284.16
2023-02-13T07:58:53.726Z,101290.38
2023-02-13T08:00:26.908Z,101286.91
2023-02-13T08:02:00.365Z,101286.94
2023-02-13T08:03:35.227Z,101282.47
2023-02-13T08:05:09.334Z,101280.75
2023-02-13T08:06:43.218Z,101274.56
2023-02-13T08:08:16.643Z,101276.34
2023-02-13T08:10:06.941Z,101282.50
2023-02-13T08:11:55.336Z,101274.59
2023-02-13T08:13:29.381Z,101271.00
2023-02-13T08:15:02.630Z,101268.38
2023-02-13T08:16:35.828Z,101271.00
2023-02-13T08:18:09.189Z,101265.66
2023-02-13T08:19:43.844Z,101266.53
2023-02-13T08:21:17.016Z,101266.53
2023-02-13T08:22:50.160Z,101265.59
2023-02-13T08:24:23.700Z,101261.09
2023-02-13T08:26:01.313Z,101260.19
2023-02-13T08:27:34.787Z,101258.38
2023-02-13T08:29:08.389Z,101248.69
2023-02-13T08:30:41.898Z,101251.16
2023-02-13T08:32:16.134Z,101252.72
2023-02-13T08:33:49.317Z,101249.00
2023-02-13T08:35:26.906Z,101255.94
2023-02-13T08:37:00.423Z,101252.22
2023-02-13T08:38:33.769Z,101238.09
2023-02-13T08:40:10.581Z,101237.97
2023-02-13T08:41:43.740Z,101241.22
2023-02-13T08:43:17.024Z,101232.06
2023-02-13T08:44:50.462Z,101234.03
2023-02-13T08:46:23.988Z,101225.28
2023-02-13T08:47:58.718Z,101234.13
2023-02-13T08:49:32.229Z,101234.13
2023-02-13T08:51:08.973Z,101230.16
2023-02-13T08:52:42.135Z,101224.66
2023-02-13T08:54:15.304Z,101232.53
2023-02-13T08:55:54.460Z,101223.50
2023-02-13T08:57:28.392Z,101227.16
2023-02-13T08:59:01.641Z,101225.50
2023-02-13T09:00:34.951Z,101223.75
2023-02-13T09:02:08.281Z,101227.09
2023-02-13T09:03:41.628Z,101221.09
2023-02-13T09:05:14.862Z,101228.44
2023-02-13T09:06:49.449Z,101217.59
2023-02-13T09:08:22.722Z,101215.50
2023-02-13T09:09:56.088Z,101217.84
2023-02-13T09:11:29.300Z,101218.50
2023-02-13T09:13:02.486Z,101211.31
2023-02-13T09:14:36.040Z,101216.59
2023-02-13T09:16:10.435Z,101222.06
2023-02-13T09:17:43.731Z,101211.19
2023-02-13T09:19:17.091Z,101224.25
2023-02-13T09:20:50.217Z,101218.09
2023-02-13T09:22:25.095Z,101212.75
2023-02-13T09:23:58.409Z,101215.75
2023-02-13T09:25:32.743Z,101205.25
2023-02-13T09:27:06.114Z,101207.19
2023-02-13T09:28:40.700Z,101195.13
2023-02-13T09:30:23.206Z,101204.97
2023-02-13T09:31:56.587Z,101198.19
2023-02-13T09:33:30.004Z,101189.66
2023-02-13T09:35:03.439Z,101191.59
2023-02-13T09:36:37.442Z,101188.19
2023-02-13T09:38:12.969Z,101190.00
2023-02-13T09:39:46.501Z,101179.50
2023-02-13T09:41:24.130Z,101183.06
2023-02-13T09:43:07.471Z,101176.06
2023-02-13T09:44:45.452Z,101171.66
2023-02-13T09:46:22.377Z,101176.91
2023-02-13T09:47:55.870Z,101163.75
2023-02-13T09:49:33.801Z,101160.22
2023-02-13T09:51:07.441Z,101157.59
2023-02-13T09:52:41.773Z,101154.09
2023-02-13T09:54:19.201Z,101152.31
2023-02-13T09:56:02.079Z,101148.78
2023-02-13T09:57:37.612Z,101149.66
2023-02-13T09:59:20.723Z,101143.50
2023-02-13T10:00:58.249Z,101134.72
2023-02-13T10:02:44.075Z,101132.09
2023-02-13T10:04:43.041Z,101139.13
2023-02-13T10:06:24.523Z,101127.66
2023-02-13T10:08:05.805Z,101124.16
2023-02-13T10:09:48.674Z,101122.41
2023-02-13T10:11:35.465Z,101123.28
2023-02-13T10:13:30.049Z,101111.88
2023-02-13T10:15:17.562Z,101105.72
2023-02-13T10:16:55.934Z,101110.97
2023-02-13T10:18:38.570Z,101096.94
2023-02-13T10:20:25.727Z,101099.56
2023-02-13T10:22:01.994Z,101095.16
2023-02-13T10:23:43.733Z,101100.44
2023-02-13T10:25:25.617Z,101096.91
2023-02-13T10:27:02.042Z,101089.91
2023-02-13T10:28:40.238Z,101081.09
2023-02-13T10:30:20.561Z,101082.84
2023-02-13T10:32:03.241Z,101088.13
2023-02-13T10:33:42.029Z,101079.34
2023-02-13T10:35:21.881Z,101068.75
2023-02-13T10:36:55.199Z,101072.25
2023-02-13T10:38:31.743Z,101078.41
2023-02-13T10:40:12.468Z,101068.75
2023-02-13T10:41:54.213Z,101064.38
2023-02-13T10:43:31.238Z,101067.00
2023-02-13T10:45:27.407Z,101053.78
2023-02-13T10:47:12.000Z,101051.13
2023-02-13T10:49:00.627Z,101050.25
2023-02-13T10:50:42.057Z,101044.97
2023-02-13T10:52:26.992Z,101044.06
2023-02-13T10:54:31.196Z,101052.84
2023-02-13T10:56:25.525Z,101043.16
2023-02-13T10:58:13.978Z,101031.72
2023-02-13T10:59:59.786Z,101048.41
2023-02-13T11:01:40.225Z,101041.38
2023-02-13T11:03:20.013Z,101026.38
2023-02-13T11:04:58.911Z,101037.81
2023-02-13T11:06:33.314Z,101024.63
2023-02-13T11:08:18.864Z,101030.81
2023-02-13T11:09:57.088Z,101026.38
2023-02-13T11:11:31.890Z,101035.19
2023-02-13T11:13:18.245Z,101031.63
2023-02-13T11:14:56.828Z,101022.81
2023-02-13T11:16:38.825Z,101025.44
2023-02-13T11:18:20.790Z,101020.19
2023-02-13T11:19:56.563Z,101023.72
2023-02-13T11:21:37.594Z,101023.72
2023-02-13T11:23:34.641Z,101017.53
2023-02-13T11:25:19.003Z,101015.78
2023-02-13T11:26:55.181Z,101015.78
2023-02-13T11:28:32.514Z,101015.78
2023-02-13T11:30:08.093Z,101012.25
2023-02-13T11:31:41.645Z,101005.25
2023-02-13T11:33:24.582Z,101009.69
2023-02-13T11:34:57.960Z,101005.22
2023-02-13T11:36:33.257Z,101006.97
2023-02-13T11:38:14.712Z,101010.44
2023-02-13T11:39:51.251Z,100999.88
2023-02-13T11:41:27.172Z,101001.59
2023-02-13T11:43:00.489Z,101001.63
2023-02-13T11:44:35.256Z,101002.50
2023-02-13T11:46:11.963Z,100996.31
2023-02-13T11:47:45.135Z,100997.25
2023-02-13T11:49:22.552Z,100992.84
2023-02-13T11:50:58.413Z,100991.06
2023-02-13T11:52:34.882Z,100991.03
2023-02-13T11:54:18.306Z,100982.22
2023-02-13T11:56:05.153Z,100986.63
2023-02-13T11:57:39.133Z,100986.63
2023-02-13T11:59:15.393Z,100984.84
2023-02-13T12:00:50.200Z,100985.75
2023-02-13T12:02:25.019Z,100982.28
2023-02-13T12:04:05.151Z,100978.66
2023-02-13T12:05:38.354Z,100979.56
2023-02-13T12:07:19.297Z,100970.72
2023-02-13T12:08:52.904Z,100966.34
2023-02-13T12:10:28.479Z,100975.19
2023-02-13T12:12:04.923Z,100969.00
2023-02-13T12:13:40.361Z,100968.16
2023-02-13T12:15:19.189Z,100967.25
2023-02-13T12:16:59.118Z,100957.53
2023-02-13T12:18:37.937Z,100962.00
2023-02-13T12:20:14.792Z,100948.78
2023-02-13T12:22:06.280Z,100963.72
2023-02-13T12:23:48.315Z,100954.06
2023-02-13T12:25:39.114Z,100947.94
2023-02-13T12:27:22.318Z,100949.66
2023-02-13T12:29:34.305Z,100939.94
2023-02-13T12:31:32.554Z,100942.56
2023-02-13T12:33:20.516Z,100933.75
2023-02-13T12:35:36.340Z,100942.56
2023-02-13T12:37:20.942Z,100929.38
2023-02-13T12:39:11.493Z,100932.91
2023-02-13T12:41:12.658Z,100941.72
2023-02-13T12:42:54.723Z,100926.75
2023-02-13T12:44:56.431Z,100920.63
2023-02-13T12:46:39.431Z,100922.38
2023-02-13T12:48:25.441Z,100931.19
2023-02-13T12:50:48.430Z,100927.66
2023-02-13T12:52:37.741Z,100927.66
2023-02-13T12:54:28.811Z,100931.19
2023-02-13T12:56:23.885Z,100933.00
2023-02-13T12:58:13.596Z,100937.38
2023-02-13T13:00:12.848Z,100924.16
2023-02-13T13:02:25.661Z,100929.44
2023-02-13T13:04:15.030Z,100923.25
2023-02-13T13:06:11.691Z,100922.38
2023-02-13T13:08:05.539Z,100922.38
2023-02-13T13:10:14.963Z,100924.09
2023-02-13T13:12:08.248Z,100925.03
2023-02-13T13:13:53.914Z,100926.78
2023-02-13T13:15:36.378Z,100920.63
2023-02-13T13:17:20.310Z,100922.34
2023-02-13T13:19:10.638Z,100931.22
2023-02-13T13:21:11.086Z,100929.44
2023-02-13T13:22:51.309Z,100923.28
2023-02-13T13:24:34.457Z,100911.81
2023-02-13T13:26:21.322Z,100922.44
2023-02-13T13:27:59.357Z,100931.22
2023-02-13T13:29:46.148Z,100925.06
2023-02-13T13:31:20.490Z,100924.09
2023-02-13T13:32:59.160Z,100925.00
2023-02-13T13:34:36.595Z,100915.34
2023-02-13T13:36:17.723Z,100913.63
2023-02-13T13:38:02.768Z,100913.63
2023-02-13T13:39:45.941Z,100910.06
2023-02-13T13:41:29.826Z,100910.06
2023-02-13T13:43:08.394Z,100911.81
2023-02-13T13:44:55.999Z,100910.06
2023-02-13T13:46:42.798Z,100910.09
2023-02-13T13:48:28.132Z,100906.59
2023-02-13T13:50:05.831Z,100902.16
2023-02-13T13:51:39.412Z,100906.59
2023-02-13T13:53:16.147Z,100892.50
2023-02-13T13:54:51.733Z,100899.56
2023-02-13T13:56:25.000Z,100894.28
2023-02-13T13:58:01.608Z,100881.97
2023-02-13T14:00:16.331Z,100885.50
2023-02-13T14:01:49.517Z,100887.25
2023-02-13T14:03:25.770Z,100884.66
2023-02-13T14:05:11.019Z,100888.16
2023-02-13T14:07:25.628Z,100889.06
2023-02-13T14:09:18.754Z,100889.13
2023-02-13T14:11:27.417Z,100878.59
2023-02-13T14:13:03.739Z,100872.31
2023-02-13T14:14:46.777Z,100860.88
2023-02-13T14:16:44.215Z,100873.22
2023-02-13T14:18:23.482Z,100873.22
2023-02-13T14:19:58.361Z,100865.31
2023-02-13T14:21:32.869Z,100865.31
2023-02-13T14:23:49.843Z,100866.22
2023-02-13T14:25:25.919Z,100868.00
2023-02-13T14:27:05.450Z,100865.38
2023-02-13T14:28:41.121Z,100854.81
2023-02-13T14:30:29.607Z,100860.09
2023-02-13T14:32:15.439Z,100852.19
2023-02-13T14:33:56.735Z,100853.09
2023-02-13T14:35:33.851Z,100842.56
2023-02-13T14:37:27.252Z,100847.84
2023-02-13T14:39:03.791Z,100840.84
2023-02-13T14:40:55.398Z,100848.75
2023-02-13T14:42:30.894Z,100844.38
2023-02-13T14:44:04.262Z,100854.94
2023-02-13T14:45:49.208Z,100857.59
2023-02-13T14:47:27.665Z,100847.94
2023-02-13T14:49:07.026Z,100853.19
2023-02-13T14:50:47.416Z,100841.81
2023-02-13T14:52:27.781Z,100847.09
2023-02-13T14:54:06.784Z,100841.84
2023-02-13T14:55:44.044Z,100843.63
2023-02-13T14:57:21.072Z,100841.91
2023-02-13T14:59:00.698Z,100841.91
2023-02-13T15:00:42.993Z,100832.25
2023-02-13T15:02:24.442Z,100834.88
2023-02-13T15:04:01.796Z,100841.03
2023-02-13T15:05:36.627Z,100840.16
2023-02-13T15:07:17.820Z,100830.53
2023-02-13T15:08:54.431Z,100834.91
2023-02-13T15:10:42.440Z,100842.81
2023-02-13T15:12:27.328Z,100834.03
2023-02-13T15:14:00.718Z,100830.53
2023-02-13T15:15:37.876Z,100827.91
2023-02-13T15:17:17.993Z,100831.44
2023-02-13T15:18:53.178Z,100825.34
2023-02-13T15:20:30.282Z,100825.34
2023-02-13T15:22:06.092Z,100817.47
2023-02-13T15:23:39.428Z,100828.03
2023-02-13T15:25:26.914Z,100822.75
2023-02-13T15:27:03.229Z,100818.44
2023-02-13T15:28:37.907Z,100832.47
2023-02-13T15:30:21.619Z,100833.38
2023-02-13T15:31:55.150Z,100829.81
2023-02-13T15:33:33.611Z,100836.88
2023-02-13T15:35:23.021Z,100834.25
2023-02-13T15:36:57.172Z,100842.16
2023-02-13T15:38:32.196Z,100840.44
2023-02-13T15:40:15.780Z,100844.81
2023-02-13T15:41:53.271Z,100846.56
2023-02-13T15:43:35.253Z,100849.19
2023-02-13T15:45:16.248Z,100843.94
2023-02-13T15:46:52.640Z,100849.19
2023-02-13T15:48:25.888Z,100847.41
2023-02-13T15:49:59.588Z,100857.94
2023-02-13T15:51:34.763Z,100855.31
2023-02-13T15:53:14.890Z,100845.63
2023-02-13T15:54:53.281Z,100855.25
2023-02-13T15:56:27.782Z,100849.09
2023-02-13T15:58:04.240Z,100856.09
2023-02-13T15:59:40.217Z,100856.06
2023-02-13T16:01:14.373Z,100847.31
2023-02-13T16:02:49.122Z,100849.91
2023-02-13T16:04:24.062Z,100854.31
2023-02-13T16:05:57.797Z,100854.25
2023-02-13T16:07:31.011Z,100849.84
2023-02-13T16:09:05.022Z,100849.88
2023-02-13T16:10:39.210Z,100843.69
2023-02-13T16:12:22.703Z,100847.19
2023-02-13T16:14:05.970Z,100840.13
2023-02-13T16:15:39.533Z,100847.13
2023-02-13T16:17:18.101Z,100852.34
2023-02-13T16:18:51.539Z,100843.56
2023-02-13T16:20:27.536Z,100850.56
2023-02-13T16:22:05.887Z,100841.75
2023-02-13T16:23:39.160Z,100839.13
2023-02-13T16:25:19.897Z,100848.69
2023-02-13T16:26:53.801Z,100849.53
2023-02-13T16:28:31.836Z,100839.88
2023-02-13T16:30:08.776Z,100852.13
2023-02-13T16:31:42.077Z,100823.13
2023-02-13T16:33:24.621Z,100852.91
2023-02-13T16:34:58.873Z,100851.09
2023-02-13T16:36:32.048Z,100853.69
2023-02-13T16:38:06.084Z,100846.56
2023-02-13T16:39:39.557Z,100846.53
2023-02-13T16:41:32.718Z,100856.09
2023-02-13T16:43:34.757Z,100846.38
2023-02-13T16:45:25.533Z,100853.28
2023-02-13T16:47:01.612Z,100852.31
2023-02-13T16:48:34.820Z,100852.22
2023-02-13T16:50:16.328Z,100854.81
2023-02-13T16:51:57.040Z,100854.69
2023-02-13T16:53:30.390Z,100851.16
2023-02-13T16:55:05.041Z,100859.84
2023-02-13T16:56:40.201Z,100861.56
2023-02-13T16:58:16.559Z,100857.13
2023-02-13T17:00:09.806Z,100857.06
2023-02-13T17:01:44.387Z,100858.72
2023-02-13T17:03:17.561Z,100850.84
2023-02-13T17:04:53.838Z,100863.91
2023-02-13T17:06:27.251Z,100850.72
2023-02-13T17:08:01.781Z,100857.66
2023-02-13T17:09:35.013Z,100854.09
2023-02-13T17:11:09.457Z,100848.78
2023-02-13T17:12:42.800Z,100859.16
2023-02-13T17:14:15.974Z,100853.84
2023-02-13T17:15:50.016Z,100858.97
2023-02-13T17:17:25.218Z,100851.88
2023-02-13T17:18:58.530Z,100865.72
2023-02-13T17:20:33.946Z,100862.88
2023-02-13T17:22:10.060Z,100860.00
2023-02-13T17:23:44.439Z,100872.09
2023-02-13T17:25:22.531Z,100870.22
2023-02-13T17:26:55.929Z,100878.63
2023-02-13T17:28:30.621Z,100879.38
2023-02-13T17:30:04.300Z,100887.13
2023-02-13T17:31:38.407Z,100878.41
2023-02-13T17:33:15.944Z,100863.34
2023-02-13T17:34:49.451Z,100881.59
2023-02-13T17:36:22.601Z,100883.41
2023-02-13T17:37:55.912Z,100879.94
2023-02-13T17:39:29.150Z,100877.31
2023-02-13T17:41:02.370Z,100879.81
2023-02-13T17:42:36.843Z,100879.00
2023-02-13T17:44:13.383Z,100885.03
2023-02-13T17:45:47.369Z,100875.44
2023-02-13T17:47:22.886Z,100884.97
2023-02-13T17:48:58.128Z,100881.41
2023-02-13T17:50:32.574Z,100881.34
2023-02-13T17:52:06.897Z,100882.09
2023-02-13T17:53:40.399Z,100889.97
2023-02-13T17:55:21.243Z,100886.50
2023-02-13T17:56:54.458Z,100893.47
2023-02-13T17:58:27.958Z,100886.34
2023-02-13T18:00:04.737Z,100882.78
2023-02-13T18:01:45.284Z,100889.63
2023-02-13T18:03:18.447Z,100887.81
2023-02-13T18:04:53.071Z,100883.50
2023-02-13T18:06:26.303Z,100886.06
2023-02-13T18:08:00.030Z,100880.81
2023-02-13T18:09:33.168Z,100882.47
2023-02-13T18:11:13.426Z,100880.69
2023-02-13T18:12:50.711Z,100886.84
2023-02-13T18:14:23.907Z,100876.22
2023-02-13T18:15:59.804Z,100873.47
2023-02-13T18:17:33.676Z,100876.97
2023-02-13T18:19:07.065Z,100880.44
2023-02-13T18:20:41.793Z,100873.53
2023-02-13T18:22:15.362Z,100878.63
2023-02-13T18:23:48.978Z,100875.91
2023-02-13T18:25:23.755Z,100878.31
2023-02-13T18:26:57.059Z,100867.66
2023-02-13T18:28:30.346Z,100879.66
2023-02-13T18:30:03.976Z,100872.59
2023-02-13T18:31:37.259Z,100879.53
2023-02-13T18:33:10.508Z,100870.72
2023-02-13T18:34:44.116Z,100875.88
2023-02-13T18:36:19.333Z,100869.66
2023-02-13T18:37:52.936Z,100875.56
2023-02-13T18:39:26.087Z,100867.72
2023-02-13T18:40:59.541Z,100875.47
2023-02-13T18:42:33.505Z,100872.53
2023-02-13T18:44:07.857Z,100874.16
2023-02-13T18:45:42.210Z,100874.16